Terminal Aerodrome Forecast
Issued by NWS

Home | Current Version | Previous Version | Text Only | Print | Product List | Glossary On
Versions: 1 2 3 4 5 6 7 8 9 10 11 12 13 14 15 16 17 18 19 20 21 22
000
FTUS43 KDVN 270520
TAFCID
TAF
KCID 270520Z 2706/2806 14008KT P6SM OVC150
      TEMPO 2706/2710 6SM SHRA BKN040
     FM271000 25007KT 5SM SHRA BR OVC040
      TEMPO 2710/2712 4SM TSRA BR OVC035CB
     FM271200 18008KT 4SM -SHRA BR VCTS BKN025CB
     FM271600 16012KT P6SM BKN050 PROB30 2723/2803 4SM TSRA BR
      BKN035CB=

USA.gov is the U.S. government's official web portal to all federal, state and local government web resources and services.